Time;durP1;ratioP1;P1;durP2;ratioP2;P2;SDS_P1;SDS_P2;PMS_P1;PMS_P2;Temp;Humidity;BMP_temperature;BMP_pressure;BME280_temperature;BME280_humidity;BME280_pressure;Samples;Min_cycle;Max_cycle;Signal;HPM_P1;HPM_P2
2022/10/05 00:00:00;;;;;;;0.4;0.4;;;;;;;15.8;100.0;101530;;;;
2022/10/05 00:01:01;;;;;;;0.4;0.4;;;;;;;15.8;100.0;101530;;;;
2022/10/05 00:02:00;;;;;;;0.4;0.4;;;;;;;15.8;100.0;101530;;;;
2022/10/05 00:03:08;;;;;;;0.4;0.4;;;;;;;15.8;100.0;101520;;;;
2022/10/05 00:04:10;;;;;;;0.4;0.4;;;;;;;15.8;100.0;101520;;;;
2022/10/05 00:05:00;;;;;;;0.4;0.4;;;;;;;15.8;100.0;101520;;;;
2022/10/05 00:06:00;;;;;;;0.4;0.4;;;;;;;15.8;100.0;101520;;;;
2022/10/05 00:07:05;;;;;;;0.4;0.4;;;;;;;15.8;100.0;101530;;;;
2022/10/05 00:08:10;;;;;;;0.4;0.4;;;;;;;15.8;100.0;101530;;;;
2022/10/05 00:09:00;;;;;;;0.4;0.4;;;;;;;15.8;100.0;101530;;;;
2022/10/05 00:10:00;;;;;;;0.4;0.4;;;;;;;15.8;100.0;101530;;;;
2022/10/05 00:11:00;;;;;;;0.4;0.4;;;;;;;15.8;100.0;101530;;;;
2022/10/05 00:12:10;;;;;;;0.4;0.4;;;;;;;15.8;100.0;101530;;;;
2022/10/05 00:13:00;;;;;;;0.4;0.4;;;;;;;15.8;100.0;101530;;;;
2022/10/05 00:14:00;;;;;;;0.4;0.4;;;;;;;15.7;100.0;101530;;;;
2022/10/05 00:15:00;;;;;;;0.4;0.4;;;;;;;15.7;100.0;101530;;;;
2022/10/05 00:16:00;;;;;;;0.4;0.4;;;;;;;15.7;100.0;101530;;;;
2022/10/05 00:17:00;;;;;;;0.4;0.4;;;;;;;15.7;100.0;101530;;;;
2022/10/05 00:18:01;;;;;;;0.4;0.4;;;;;;;15.8;100.0;101520;;;;
2022/10/05 00:19:00;;;;;;;0.4;0.4;;;;;;;15.8;100.0;101520;;;;
2022/10/05 00:20:00;;;;;;;0.4;0.4;;;;;;;15.8;100.0;101510;;;;
2022/10/05 00:21:00;;;;;;;0.4;0.4;;;;;;;15.8;100.0;101510;;;;
2022/10/05 00:22:05;;;;;;;0.4;0.4;;;;;;;15.8;100.0;101510;;;;
2022/10/05 00:23:03;;;;;;;0.4;0.4;;;;;;;15.7;100.0;101510;;;;
2022/10/05 00:24:00;;;;;;;0.4;0.4;;;;;;;15.7;100.0;101510;;;;
2022/10/05 00:25:02;;;;;;;0.4;0.4;;;;;;;15.7;100.0;101510;;;;
2022/10/05 00:26:05;;;;;;;0.4;0.4;;;;;;;15.6;100.0;101510;;;;
2022/10/05 00:27:00;;;;;;;0.4;0.4;;;;;;;15.6;100.0;101510;;;;
2022/10/05 00:28:00;;;;;;;0.4;0.4;;;;;;;15.6;100.0;101500;;;;
2022/10/05 00:29:01;;;;;;;0.4;0.4;;;;;;;15.6;100.0;101500;;;;
2022/10/05 00:30:06;;;;;;;0.4;0.4;;;;;;;15.6;100.0;101500;;;;
2022/10/05 00:31:00;;;;;;;0.4;0.4;;;;;;;15.6;100.0;101500;;;;
2022/10/05 00:32:00;;;;;;;0.4;0.4;;;;;;;15.7;100.0;101510;;;;
2022/10/05 00:33:00;;;;;;;0.4;0.4;;;;;;;15.7;100.0;101510;;;;
2022/10/05 00:34:00;;;;;;;0.4;0.4;;;;;;;15.7;100.0;101500;;;;
2022/10/05 00:35:00;;;;;;;0.4;0.4;;;;;;;15.7;100.0;101500;;;;
2022/10/05 00:36:00;;;;;;;0.3;0.3;;;;;;;15.7;100.0;101500;;;;
2022/10/05 00:37:00;;;;;;;0.3;0.3;;;;;;;15.7;100.0;101500;;;;
2022/10/05 00:38:00;;;;;;;0.3;0.3;;;;;;;15.7;100.0;101500;;;;
2022/10/05 00:39:00;;;;;;;0.3;0.3;;;;;;;15.7;100.0;101500;;;;
2022/10/05 00:40:00;;;;;;;0.3;0.3;;;;;;;15.7;100.0;101500;;;;
2022/10/05 00:41:01;;;;;;;0.3;0.3;;;;;;;15.7;100.0;101500;;;;
2022/10/05 00:42:01;;;;;;;0.3;0.3;;;;;;;15.7;100.0;101490;;;;
2022/10/05 00:43:00;;;;;;;0.3;0.3;;;;;;;15.7;100.0;101490;;;;
2022/10/05 00:44:00;;;;;;;0.3;0.3;;;;;;;15.8;100.0;101490;;;;
2022/10/05 00:45:00;;;;;;;0.3;0.3;;;;;;;15.8;100.0;101490;;;;
2022/10/05 00:46:10;;;;;;;0.3;0.3;;;;;;;15.7;100.0;101490;;;;
2022/10/05 00:47:10;;;;;;;0.3;0.3;;;;;;;15.6;100.0;101490;;;;
2022/10/05 00:48:00;;;;;;;0.3;0.3;;;;;;;15.6;100.0;101490;;;;
2022/10/05 00:49:00;;;;;;;0.3;0.3;;;;;;;15.6;100.0;101490;;;;
2022/10/05 00:50:10;;;;;;;0.3;0.3;;;;;;;15.6;100.0;101500;;;;
2022/10/05 00:51:10;;;;;;;0.3;0.3;;;;;;;15.6;100.0;101500;;;;
2022/10/05 00:52:10;;;;;;;0.3;0.3;;;;;;;15.6;100.0;101500;;;;
2022/10/05 00:53:10;;;;;;;0.3;0.3;;;;;;;15.5;100.0;101500;;;;
2022/10/05 00:54:07;;;;;;;0.3;0.3;;;;;;;15.5;100.0;101500;;;;
2022/10/05 00:55:03;;;;;;;0.3;0.3;;;;;;;15.6;100.0;101500;;;;
2022/10/05 00:56:06;;;;;;;0.3;0.3;;;;;;;15.6;100.0;101500;;;;
2022/10/05 00:57:10;;;;;;;0.3;0.3;;;;;;;15.6;100.0;101500;;;;
2022/10/05 00:58:00;;;;;;;0.3;0.3;;;;;;;15.6;100.0;101500;;;;
2022/10/05 00:59:10;;;;;;;0.3;0.3;;;;;;;15.4;100.0;101500;;;;
2022/10/05 01:00:00;;;;;;;0.3;0.3;;;;;;;15.4;100.0;101500;;;;
2022/10/05 01:01:08;;;;;;;0.3;0.3;;;;;;;15.5;100.0;101500;;;;
2022/10/05 01:02:10;;;;;;;0.3;0.3;;;;;;;15.5;100.0;101500;;;;
2022/10/05 01:03:03;;;;;;;0.3;0.3;;;;;;;15.5;100.0;101490;;;;
2022/10/05 01:04:10;;;;;;;0.3;0.3;;;;;;;15.5;100.0;101490;;;;
2022/10/05 01:05:03;;;;;;;0.3;0.3;;;;;;;15.6;100.0;101500;;;;
2022/10/05 01:06:01;;;;;;;0.3;0.3;;;;;;;15.6;100.0;101500;;;;
2022/10/05 01:07:01;;;;;;;0.3;0.3;;;;;;;15.6;100.0;101500;;;;
2022/10/05 01:08:06;;;;;;;0.3;0.3;;;;;;;15.6;100.0;101490;;;;
2022/10/05 01:09:01;;;;;;;0.3;0.3;;;;;;;15.6;100.0;101490;;;;
2022/10/05 01:10:10;;;;;;;0.3;0.3;;;;;;;15.6;100.0;101490;;;;
2022/10/05 01:11:07;;;;;;;0.3;0.3;;;;;;;15.5;100.0;101490;;;;
2022/10/05 01:12:10;;;;;;;0.3;0.3;;;;;;;15.5;100.0;101490;;;;
2022/10/05 01:13:03;;;;;;;0.3;0.3;;;;;;;15.5;100.0;101490;;;;
2022/10/05 01:14:07;;;;;;;0.3;0.3;;;;;;;15.5;100.0;101490;;;;
2022/10/05 01:15:10;;;;;;;0.5;0.5;;;;;;;15.6;100.0;101490;;;;
2022/10/05 01:16:10;;;;;;;0.5;0.5;;;;;;;15.6;100.0;101490;;;;
2022/10/05 01:17:04;;;;;;;0.5;0.5;;;;;;;15.5;100.0;101480;;;;
2022/10/05 01:18:10;;;;;;;0.5;0.5;;;;;;;15.5;100.0;101480;;;;
2022/10/05 01:19:10;;;;;;;0.5;0.5;;;;;;;15.6;100.0;101480;;;;
2022/10/05 01:20:00;;;;;;;0.5;0.5;;;;;;;15.6;100.0;101480;;;;
2022/10/05 01:21:00;;;;;;;0.5;0.5;;;;;;;15.6;100.0;101480;;;;
2022/10/05 01:22:07;;;;;;;0.5;0.5;;;;;;;15.6;100.0;101470;;;;
2022/10/05 01:23:07;;;;;;;0.5;0.5;;;;;;;15.5;100.0;101480;;;;
2022/10/05 01:24:08;;;;;;;0.5;0.5;;;;;;;15.5;100.0;101480;;;;
2022/10/05 01:25:07;;;;;;;0.5;0.5;;;;;;;15.6;100.0;101470;;;;
2022/10/05 01:26:10;;;;;;;0.5;0.5;;;;;;;15.6;100.0;101470;;;;
2022/10/05 01:27:00;;;;;;;0.5;0.5;;;;;;;15.6;100.0;101470;;;;
2022/10/05 01:28:02;;;;;;;0.5;0.5;;;;;;;15.5;100.0;101470;;;;
2022/10/05 01:29:05;;;;;;;0.5;0.5;;;;;;;15.5;100.0;101460;;;;
2022/10/05 01:30:07;;;;;;;0.5;0.5;;;;;;;15.5;100.0;101460;;;;
2022/10/05 01:31:00;;;;;;;0.5;0.5;;;;;;;15.5;100.0;101460;;;;
2022/10/05 01:32:10;;;;;;;0.5;0.5;;;;;;;15.4;100.0;101470;;;;
2022/10/05 01:33:00;;;;;;;0.5;0.5;;;;;;;15.4;100.0;101470;;;;
2022/10/05 01:34:11;;;;;;;0.5;0.5;;;;;;;15.4;100.0;101460;;;;
2022/10/05 01:35:10;;;;;;;0.4;0.4;;;;;;;15.5;100.0;101460;;;;
2022/10/05 01:36:09;;;;;;;0.4;0.4;;;;;;;15.5;100.0;101460;;;;
2022/10/05 01:37:07;;;;;;;0.4;0.4;;;;;;;15.4;100.0;101460;;;;
2022/10/05 01:38:10;;;;;;;0.4;0.4;;;;;;;15.4;100.0;101460;;;;
2022/10/05 01:39:07;;;;;;;0.4;0.4;;;;;;;15.5;100.0;101460;;;;
2022/10/05 01:40:06;;;;;;;0.4;0.4;;;;;;;15.5;100.0;101460;;;;
2022/10/05 01:41:10;;;;;;;0.4;0.4;;;;;;;15.4;100.0;101450;;;;
2022/10/05 01:42:06;;;;;;;0.4;0.4;;;;;;;15.4;100.0;101450;;;;
2022/10/05 01:43:07;;;;;;;0.4;0.4;;;;;;;15.4;100.0;101460;;;;
2022/10/05 01:44:04;;;;;;;0.4;0.4;;;;;;;15.4;100.0;101460;;;;
2022/10/05 01:45:08;;;;;;;0.4;0.4;;;;;;;15.4;100.0;101460;;;;
2022/10/05 01:46:10;;;;;;;0.4;0.4;;;;;;;15.4;100.0;101460;;;;
2022/10/05 01:47:02;;;;;;;0.4;0.4;;;;;;;15.4;100.0;101460;;;;
2022/10/05 01:48:10;;;;;;;0.4;0.4;;;;;;;15.4;100.0;101460;;;;
2022/10/05 01:49:01;;;;;;;0.4;0.4;;;;;;;15.4;100.0;101460;;;;
2022/10/05 01:50:03;;;;;;;0.4;0.4;;;;;;;15.5;100.0;101450;;;;
2022/10/05 01:51:03;;;;;;;0.4;0.4;;;;;;;15.4;100.0;101450;;;;
2022/10/05 01:52:09;;;;;;;0.4;0.4;;;;;;;15.4;100.0;101450;;;;
2022/10/05 01:53:10;;;;;;;0.4;0.4;;;;;;;15.5;100.0;101460;;;;
2022/10/05 01:54:08;;;;;;;0.4;0.4;;;;;;;15.5;100.0;101460;;;;
2022/10/05 01:55:10;;;;;;;0.5;0.5;;;;;;;15.4;100.0;101450;;;;
2022/10/05 01:56:00;;;;;;;0.5;0.5;;;;;;;15.4;100.0;101450;;;;
2022/10/05 01:57:03;;;;;;;0.5;0.5;;;;;;;15.5;100.0;101440;;;;
2022/10/05 01:58:00;;;;;;;0.5;0.5;;;;;;;15.5;100.0;101440;;;;
2022/10/05 01:59:03;;;;;;;0.5;0.5;;;;;;;15.5;100.0;101440;;;;
2022/10/05 02:00:10;;;;;;;0.5;0.5;;;;;;;15.5;100.0;101440;;;;
2022/10/05 02:01:01;;;;;;;0.5;0.5;;;;;;;15.5;100.0;101440;;;;
2022/10/05 02:02:03;;;;;;;0.5;0.5;;;;;;;15.4;100.0;101440;;;;
2022/10/05 02:03:01;;;;;;;0.5;0.5;;;;;;;15.4;100.0;101440;;;;
2022/10/05 02:04:03;;;;;;;0.5;0.5;;;;;;;15.4;100.0;101430;;;;
2022/10/05 02:05:10;;;;;;;0.5;0.5;;;;;;;15.4;100.0;101430;;;;
2022/10/05 02:06:03;;;;;;;0.5;0.5;;;;;;;15.4;100.0;101430;;;;
2022/10/05 02:07:03;;;;;;;0.5;0.5;;;;;;;15.4;100.0;101420;;;;
2022/10/05 02:08:07;;;;;;;0.5;0.5;;;;;;;15.4;100.0;101420;;;;
2022/10/05 02:09:10;;;;;;;0.5;0.5;;;;;;;15.4;100.0;101420;;;;
2022/10/05 02:10:03;;;;;;;0.5;0.5;;;;;;;15.4;100.0;101420;;;;
2022/10/05 02:11:03;;;;;;;0.5;0.5;;;;;;;15.2;100.0;101420;;;;
2022/10/05 02:12:04;;;;;;;0.5;0.5;;;;;;;15.2;100.0;101420;;;;
2022/10/05 02:13:03;;;;;;;0.5;0.5;;;;;;;15.2;100.0;101420;;;;
2022/10/05 02:14:06;;;;;;;0.5;0.5;;;;;;;15.2;100.0;101420;;;;
2022/10/05 02:15:06;;;;;;;0.8;0.8;;;;;;;15.2;100.0;101420;;;;
2022/10/05 02:16:02;;;;;;;0.8;0.8;;;;;;;15.2;100.0;101420;;;;
2022/10/05 02:17:04;;;;;;;0.8;0.8;;;;;;;15.3;100.0;101410;;;;
2022/10/05 02:18:06;;;;;;;0.8;0.8;;;;;;;15.3;100.0;101410;;;;
2022/10/05 02:19:07;;;;;;;0.8;0.8;;;;;;;15.2;100.0;101410;;;;
2022/10/05 02:20:03;;;;;;;0.8;0.8;;;;;;;15.2;100.0;101410;;;;
2022/10/05 02:21:01;;;;;;;0.8;0.8;;;;;;;15.2;100.0;101410;;;;
2022/10/05 02:22:04;;;;;;;0.8;0.8;;;;;;;15.3;100.0;101420;;;;
2022/10/05 02:23:03;;;;;;;0.8;0.8;;;;;;;15.2;100.0;101410;;;;
2022/10/05 02:24:04;;;;;;;0.8;0.8;;;;;;;15.2;100.0;101410;;;;
2022/10/05 02:25:02;;;;;;;0.8;0.8;;;;;;;15.2;100.0;101410;;;;
2022/10/05 02:26:00;;;;;;;0.8;0.8;;;;;;;15.2;100.0;101410;;;;
2022/10/05 02:27:02;;;;;;;0.8;0.8;;;;;;;15.3;100.0;101410;;;;
2022/10/05 02:28:03;;;;;;;0.8;0.8;;;;;;;15.3;100.0;101410;;;;
2022/10/05 02:29:03;;;;;;;0.8;0.8;;;;;;;15.3;100.0;101410;;;;
2022/10/05 02:30:02;;;;;;;0.8;0.8;;;;;;;15.3;100.0;101410;;;;
2022/10/05 02:31:04;;;;;;;0.8;0.8;;;;;;;15.3;100.0;101410;;;;
2022/10/05 02:32:06;;;;;;;0.8;0.8;;;;;;;15.3;100.0;101410;;;;
2022/10/05 02:33:03;;;;;;;0.8;0.8;;;;;;;15.4;100.0;101400;;;;
2022/10/05 02:34:10;;;;;;;0.8;0.8;;;;;;;15.4;100.0;101400;;;;
2022/10/05 02:35:03;;;;;;;1.3;1.2;;;;;;;15.3;100.0;101400;;;;
2022/10/05 02:36:06;;;;;;;1.3;1.2;;;;;;;15.3;100.0;101400;;;;
2022/10/05 02:37:00;;;;;;;1.3;1.2;;;;;;;15.3;100.0;101400;;;;
2022/10/05 02:38:03;;;;;;;1.3;1.2;;;;;;;15.2;100.0;101390;;;;
2022/10/05 02:39:10;;;;;;;1.3;1.2;;;;;;;15.3;100.0;101400;;;;
2022/10/05 02:40:10;;;;;;;1.3;1.2;;;;;;;15.3;100.0;101400;;;;
2022/10/05 02:41:00;;;;;;;1.3;1.2;;;;;;;15.3;100.0;101400;;;;
2022/10/05 02:42:10;;;;;;;1.3;1.2;;;;;;;15.4;100.0;101390;;;;
2022/10/05 02:43:10;;;;;;;1.3;1.2;;;;;;;15.1;100.0;101390;;;;
2022/10/05 02:44:10;;;;;;;1.3;1.2;;;;;;;15.1;100.0;101390;;;;
2022/10/05 02:45:00;;;;;;;1.3;1.2;;;;;;;15.1;100.0;101390;;;;
2022/10/05 02:46:01;;;;;;;1.3;1.2;;;;;;;15.1;100.0;101390;;;;
2022/10/05 02:47:09;;;;;;;1.3;1.2;;;;;;;15.2;100.0;101390;;;;
2022/10/05 02:48:10;;;;;;;1.3;1.2;;;;;;;15.2;100.0;101390;;;;
2022/10/05 02:49:01;;;;;;;1.3;1.2;;;;;;;15.2;100.0;101390;;;;
2022/10/05 02:50:10;;;;;;;1.3;1.2;;;;;;;15.2;100.0;101390;;;;
2022/10/05 02:51:10;;;;;;;1.3;1.2;;;;;;;15.2;100.0;101390;;;;
2022/10/05 02:52:01;;;;;;;1.3;1.2;;;;;;;15.2;100.0;101390;;;;
2022/10/05 02:53:10;;;;;;;1.3;1.2;;;;;;;15.3;100.0;101380;;;;
2022/10/05 02:54:01;;;;;;;1.3;1.2;;;;;;;15.3;100.0;101380;;;;
2022/10/05 02:55:00;;;;;;;7.1;1.2;;;;;;;15.3;100.0;101380;;;;
2022/10/05 02:56:10;;;;;;;7.1;1.2;;;;;;;15.2;100.0;101380;;;;
2022/10/05 02:57:06;;;;;;;7.1;1.2;;;;;;;15.1;100.0;101380;;;;
2022/10/05 02:58:06;;;;;;;7.1;1.2;;;;;;;15.1;100.0;101380;;;;
2022/10/05 02:59:09;;;;;;;7.1;1.2;;;;;;;15.2;100.0;101370;;;;
2022/10/05 03:00:10;;;;;;;7.1;1.2;;;;;;;15.2;100.0;101370;;;;
2022/10/05 03:01:10;;;;;;;7.1;1.2;;;;;;;15.2;100.0;101360;;;;
2022/10/05 03:02:06;;;;;;;7.1;1.2;;;;;;;15.2;100.0;101360;;;;
2022/10/05 03:03:05;;;;;;;7.1;1.2;;;;;;;15.2;100.0;101360;;;;
2022/10/05 03:04:06;;;;;;;7.1;1.2;;;;;;;15.2;100.0;101360;;;;
2022/10/05 03:05:07;;;;;;;7.1;1.2;;;;;;;15.2;100.0;101350;;;;
2022/10/05 03:06:02;;;;;;;7.1;1.2;;;;;;;15.2;100.0;101350;;;;
2022/10/05 03:07:07;;;;;;;7.1;1.2;;;;;;;15.1;100.0;101350;;;;
2022/10/05 03:08:01;;;;;;;7.1;1.2;;;;;;;15.1;100.0;101350;;;;
2022/10/05 03:09:04;;;;;;;7.1;1.2;;;;;;;15.1;100.0;101350;;;;
2022/10/05 03:10:06;;;;;;;7.1;1.2;;;;;;;15.1;100.0;101350;;;;
2022/10/05 03:11:10;;;;;;;7.1;1.2;;;;;;;15.0;100.0;101350;;;;
2022/10/05 03:12:10;;;;;;;7.1;1.2;;;;;;;15.0;100.0;101350;;;;
2022/10/05 03:13:05;;;;;;;7.1;1.2;;;;;;;15.0;100.0;101350;;;;
2022/10/05 03:14:10;;;;;;;7.1;1.2;;;;;;;15.0;100.0;101350;;;;
2022/10/05 03:15:10;;;;;;;0.4;0.4;;;;;;;15.0;100.0;101350;;;;
2022/10/05 03:16:00;;;;;;;0.4;0.4;;;;;;;15.0;100.0;101350;;;;
2022/10/05 03:17:10;;;;;;;0.4;0.4;;;;;;;15.0;100.0;101350;;;;
2022/10/05 03:18:01;;;;;;;0.4;0.4;;;;;;;15.0;100.0;101350;;;;
2022/10/05 03:19:09;;;;;;;0.4;0.4;;;;;;;15.0;100.0;101350;;;;
2022/10/05 03:20:06;;;;;;;0.4;0.4;;;;;;;15.0;100.0;101350;;;;
2022/10/05 03:21:00;;;;;;;0.4;0.4;;;;;;;15.0;100.0;101350;;;;
2022/10/05 03:22:03;;;;;;;0.4;0.4;;;;;;;15.0;100.0;101360;;;;
2022/10/05 03:23:01;;;;;;;0.4;0.4;;;;;;;15.0;100.0;101360;;;;
2022/10/05 03:24:10;;;;;;;0.4;0.4;;;;;;;14.9;100.0;101360;;;;
2022/10/05 03:25:10;;;;;;;0.4;0.4;;;;;;;14.9;100.0;101350;;;;
2022/10/05 03:26:10;;;;;;;0.4;0.4;;;;;;;14.9;100.0;101350;;;;
2022/10/05 03:27:07;;;;;;;0.4;0.4;;;;;;;15.0;100.0;101360;;;;
2022/10/05 03:28:04;;;;;;;0.4;0.4;;;;;;;15.0;100.0;101360;;;;
2022/10/05 03:29:10;;;;;;;0.4;0.4;;;;;;;14.9;100.0;101360;;;;
2022/10/05 03:30:03;;;;;;;0.4;0.4;;;;;;;14.9;100.0;101360;;;;
2022/10/05 03:31:03;;;;;;;0.4;0.4;;;;;;;14.9;100.0;101360;;;;
2022/10/05 03:32:10;;;;;;;0.4;0.4;;;;;;;14.9;100.0;101360;;;;
2022/10/05 03:33:03;;;;;;;0.4;0.4;;;;;;;15.0;100.0;101360;;;;
2022/10/05 03:34:07;;;;;;;0.4;0.4;;;;;;;15.0;100.0;101360;;;;
2022/10/05 03:35:10;;;;;;;0.6;0.6;;;;;;;15.0;100.0;101360;;;;
2022/10/05 03:36:10;;;;;;;0.6;0.6;;;;;;;15.0;100.0;101360;;;;
2022/10/05 03:37:10;;;;;;;0.6;0.6;;;;;;;14.9;100.0;101360;;;;
2022/10/05 03:38:08;;;;;;;0.6;0.6;;;;;;;14.9;100.0;101360;;;;
2022/10/05 03:39:10;;;;;;;0.6;0.6;;;;;;;14.9;100.0;101360;;;;
2022/10/05 03:40:05;;;;;;;0.6;0.6;;;;;;;14.9;100.0;101360;;;;
2022/10/05 03:41:09;;;;;;;0.6;0.6;;;;;;;14.9;100.0;101360;;;;
2022/10/05 03:42:10;;;;;;;0.6;0.6;;;;;;;14.9;100.0;101360;;;;
2022/10/05 03:43:00;;;;;;;0.6;0.6;;;;;;;14.9;100.0;101360;;;;
2022/10/05 03:44:10;;;;;;;0.6;0.6;;;;;;;14.9;100.0;101350;;;;
2022/10/05 03:45:10;;;;;;;0.6;0.6;;;;;;;15.0;100.0;101350;;;;
2022/10/05 03:46:10;;;;;;;0.6;0.6;;;;;;;15.0;100.0;101350;;;;
2022/10/05 03:47:10;;;;;;;0.6;0.6;;;;;;;14.9;100.0;101360;;;;
2022/10/05 03:48:01;;;;;;;0.6;0.6;;;;;;;14.9;100.0;101360;;;;
2022/10/05 03:49:09;;;;;;;0.6;0.6;;;;;;;14.9;100.0;101350;;;;
2022/10/05 03:50:10;;;;;;;0.6;0.6;;;;;;;14.9;100.0;101350;;;;
2022/10/05 03:51:05;;;;;;;0.6;0.6;;;;;;;14.9;100.0;101360;;;;
2022/10/05 03:52:03;;;;;;;0.6;0.6;;;;;;;14.9;100.0;101360;;;;
2022/10/05 03:53:05;;;;;;;0.6;0.6;;;;;;;14.9;100.0;101350;;;;
2022/10/05 03:54:10;;;;;;;0.6;0.6;;;;;;;14.9;100.0;101350;;;;
2022/10/05 03:55:00;;;;;;;0.4;0.4;;;;;;;14.9;100.0;101350;;;;
2022/10/05 03:56:04;;;;;;;0.4;0.4;;;;;;;15.1;100.0;101350;;;;
2022/10/05 03:57:06;;;;;;;0.4;0.4;;;;;;;15.0;100.0;101350;;;;
2022/10/05 03:58:04;;;;;;;0.4;0.4;;;;;;;15.0;100.0;101350;;;;
2022/10/05 03:59:08;;;;;;;0.4;0.4;;;;;;;14.9;100.0;101350;;;;
2022/10/05 04:00:04;;;;;;;0.4;0.4;;;;;;;14.9;100.0;101350;;;;
2022/10/05 04:01:03;;;;;;;0.4;0.4;;;;;;;14.8;100.0;101350;;;;
2022/10/05 04:02:01;;;;;;;0.4;0.4;;;;;;;14.8;100.0;101350;;;;
2022/10/05 04:03:04;;;;;;;0.4;0.4;;;;;;;14.8;100.0;101360;;;;
2022/10/05 04:04:02;;;;;;;0.4;0.4;;;;;;;14.8;100.0;101360;;;;
2022/10/05 04:05:04;;;;;;;0.4;0.4;;;;;;;14.9;100.0;101350;;;;
2022/10/05 04:06:08;;;;;;;0.4;0.4;;;;;;;14.9;100.0;101350;;;;
2022/10/05 04:07:00;;;;;;;0.4;0.4;;;;;;;14.9;100.0;101350;;;;
2022/10/05 04:08:03;;;;;;;0.4;0.4;;;;;;;14.9;100.0;101340;;;;
2022/10/05 04:09:03;;;;;;;0.4;0.4;;;;;;;14.8;100.0;101350;;;;
2022/10/05 04:10:02;;;;;;;0.4;0.4;;;;;;;14.8;100.0;101350;;;;
2022/10/05 04:11:03;;;;;;;0.4;0.4;;;;;;;14.8;100.0;101350;;;;
2022/10/05 04:12:07;;;;;;;0.4;0.4;;;;;;;14.8;100.0;101350;;;;
2022/10/05 04:13:10;;;;;;;0.4;0.4;;;;;;;14.8;100.0;101350;;;;
2022/10/05 04:14:03;;;;;;;0.4;0.4;;;;;;;14.8;100.0;101350;;;;
2022/10/05 04:15:05;;;;;;;0.4;0.4;;;;;;;14.8;100.0;101350;;;;
2022/10/05 04:16:10;;;;;;;0.4;0.4;;;;;;;14.8;100.0;101350;;;;
2022/10/05 04:17:10;;;;;;;0.4;0.4;;;;;;;14.9;100.0;101350;;;;
2022/10/05 04:18:04;;;;;;;0.4;0.4;;;;;;;14.9;100.0;101350;;;;
2022/10/05 04:19:09;;;;;;;0.4;0.4;;;;;;;14.9;100.0;101350;;;;
2022/10/05 04:20:03;;;;;;;0.4;0.4;;;;;;;14.9;100.0;101350;;;;
2022/10/05 04:21:03;;;;;;;0.4;0.4;;;;;;;14.9;100.0;101350;;;;
2022/10/05 04:22:06;;;;;;;0.4;0.4;;;;;;;14.9;100.0;101350;;;;
2022/10/05 04:23:07;;;;;;;0.4;0.4;;;;;;;14.8;100.0;101350;;;;
2022/10/05 04:24:05;;;;;;;0.4;0.4;;;;;;;14.8;100.0;101350;;;;
2022/10/05 04:25:10;;;;;;;0.4;0.4;;;;;;;14.9;100.0;101350;;;;
2022/10/05 04:26:03;;;;;;;0.4;0.4;;;;;;;14.9;100.0;101350;;;;
2022/10/05 04:27:06;;;;;;;0.4;0.4;;;;;;;14.9;100.0;101350;;;;
2022/10/05 04:28:05;;;;;;;0.4;0.4;;;;;;;14.9;100.0;101350;;;;
2022/10/05 04:29:05;;;;;;;0.4;0.4;;;;;;;14.8;100.0;101350;;;;
2022/10/05 04:30:00;;;;;;;0.4;0.4;;;;;;;14.8;100.0;101350;;;;
2022/10/05 04:31:03;;;;;;;0.4;0.4;;;;;;;14.8;100.0;101350;;;;
2022/10/05 04:32:07;;;;;;;0.4;0.4;;;;;;;14.8;100.0;101350;;;;
2022/10/05 04:33:00;;;;;;;0.4;0.4;;;;;;;14.8;100.0;101350;;;;
2022/10/05 04:34:08;;;;;;;0.4;0.4;;;;;;;14.8;100.0;101350;;;;
2022/10/05 04:35:08;;;;;;;0.4;0.4;;;;;;;14.7;100.0;101350;;;;
2022/10/05 04:36:10;;;;;;;0.4;0.4;;;;;;;14.7;100.0;101350;;;;
2022/10/05 04:37:04;;;;;;;0.4;0.4;;;;;;;14.7;100.0;101350;;;;
2022/10/05 04:38:01;;;;;;;0.4;0.4;;;;;;;14.7;100.0;101350;;;;
2022/10/05 04:39:00;;;;;;;0.4;0.4;;;;;;;14.7;100.0;101350;;;;
2022/10/05 04:40:10;;;;;;;0.4;0.4;;;;;;;14.7;100.0;101350;;;;
2022/10/05 04:41:10;;;;;;;0.4;0.4;;;;;;;14.7;100.0;101340;;;;
2022/10/05 04:42:08;;;;;;;0.4;0.4;;;;;;;14.7;100.0;101340;;;;
2022/10/05 04:43:00;;;;;;;0.4;0.4;;;;;;;14.7;100.0;101340;;;;
2022/10/05 04:44:00;;;;;;;0.4;0.4;;;;;;;14.8;100.0;101340;;;;
2022/10/05 04:45:06;;;;;;;0.4;0.4;;;;;;;14.6;100.0;101350;;;;
2022/10/05 04:46:05;;;;;;;0.4;0.4;;;;;;;14.6;100.0;101350;;;;
2022/10/05 04:47:02;;;;;;;0.4;0.4;;;;;;;14.6;100.0;101350;;;;
2022/10/05 04:48:00;;;;;;;0.4;0.4;;;;;;;14.7;100.0;101350;;;;
2022/10/05 04:49:10;;;;;;;0.4;0.4;;;;;;;14.7;100.0;101340;;;;
2022/10/05 04:50:10;;;;;;;0.4;0.4;;;;;;;14.7;100.0;101340;;;;
2022/10/05 04:51:09;;;;;;;0.4;0.4;;;;;;;14.8;100.0;101340;;;;
2022/10/05 04:52:01;;;;;;;0.4;0.4;;;;;;;14.8;100.0;101340;;;;
2022/10/05 04:53:09;;;;;;;0.4;0.4;;;;;;;14.9;100.0;101340;;;;
2022/10/05 04:54:07;;;;;;;0.4;0.4;;;;;;;14.9;100.0;101340;;;;
2022/10/05 04:55:10;;;;;;;0.4;0.4;;;;;;;14.8;100.0;101330;;;;
2022/10/05 04:56:03;;;;;;;0.4;0.4;;;;;;;14.8;100.0;101330;;;;
2022/10/05 04:57:05;;;;;;;0.4;0.4;;;;;;;14.8;100.0;101330;;;;
2022/10/05 04:58:05;;;;;;;0.4;0.4;;;;;;;14.8;100.0;101330;;;;
2022/10/05 04:59:10;;;;;;;0.4;0.4;;;;;;;14.8;100.0;101330;;;;
2022/10/05 05:00:00;;;;;;;0.4;0.4;;;;;;;14.8;100.0;101330;;;;
2022/10/05 05:01:10;;;;;;;0.4;0.4;;;;;;;14.9;100.0;101340;;;;
2022/10/05 05:02:10;;;;;;;0.4;0.4;;;;;;;14.9;100.0;101340;;;;
2022/10/05 05:03:10;;;;;;;0.4;0.4;;;;;;;14.9;100.0;101330;;;;
2022/10/05 05:04:06;;;;;;;0.4;0.4;;;;;;;14.9;100.0;101330;;;;
2022/10/05 05:05:10;;;;;;;0.4;0.4;;;;;;;14.7;100.0;101330;;;;
2022/10/05 05:06:13;;;;;;;0.4;0.4;;;;;;;14.7;100.0;101330;;;;
2022/10/05 05:07:01;;;;;;;0.4;0.4;;;;;;;14.7;100.0;101330;;;;
2022/10/05 05:08:10;;;;;;;0.4;0.4;;;;;;;14.7;100.0;101330;;;;
2022/10/05 05:09:03;;;;;;;0.4;0.4;;;;;;;14.7;100.0;101330;;;;
2022/10/05 05:10:00;;;;;;;0.4;0.4;;;;;;;14.7;100.0;101330;;;;
2022/10/05 05:11:16;;;;;;;0.4;0.4;;;;;;;14.7;100.0;101320;;;;
2022/10/05 05:12:06;;;;;;;0.4;0.4;;;;;;;14.7;100.0;101320;;;;
2022/10/05 05:13:10;;;;;;;0.4;0.4;;;;;;;14.9;100.0;101330;;;;
2022/10/05 05:14:01;;;;;;;0.4;0.4;;;;;;;14.9;100.0;101330;;;;
2022/10/05 05:15:00;;;;;;;0.4;0.4;;;;;;;14.9;100.0;101330;;;;
2022/10/05 05:16:04;;;;;;;0.4;0.4;;;;;;;14.9;100.0;101320;;;;
2022/10/05 05:17:13;;;;;;;0.4;0.4;;;;;;;14.7;100.0;101320;;;;
2022/10/05 05:18:05;;;;;;;0.4;0.4;;;;;;;14.7;100.0;101320;;;;
2022/10/05 05:19:10;;;;;;;0.4;0.4;;;;;;;14.7;100.0;101330;;;;
2022/10/05 05:20:01;;;;;;;0.4;0.4;;;;;;;14.7;100.0;101330;;;;
2022/10/05 05:21:07;;;;;;;0.4;0.4;;;;;;;14.8;100.0;101330;;;;
2022/10/05 05:22:03;;;;;;;0.4;0.4;;;;;;;14.8;100.0;101330;;;;
2022/10/05 05:23:03;;;;;;;0.4;0.4;;;;;;;14.7;100.0;101330;;;;
2022/10/05 05:24:10;;;;;;;0.4;0.4;;;;;;;14.7;100.0;101330;;;;
2022/10/05 05:25:10;;;;;;;0.4;0.4;;;;;;;14.7;100.0;101320;;;;
2022/10/05 05:26:09;;;;;;;0.4;0.4;;;;;;;14.7;100.0;101320;;;;
2022/10/05 05:27:09;;;;;;;0.4;0.4;;;;;;;14.8;100.0;101320;;;;
2022/10/05 05:28:08;;;;;;;0.4;0.4;;;;;;;14.8;100.0;101320;;;;
2022/10/05 05:29:10;;;;;;;0.4;0.4;;;;;;;14.8;100.0;101320;;;;
2022/10/05 05:30:01;;;;;;;0.4;0.4;;;;;;;14.8;100.0;101320;;;;
2022/10/05 05:31:09;;;;;;;0.4;0.4;;;;;;;14.8;100.0;101320;;;;
2022/10/05 05:32:08;;;;;;;0.4;0.4;;;;;;;14.8;100.0;101320;;;;
2022/10/05 05:33:10;;;;;;;0.4;0.4;;;;;;;14.6;100.0;101320;;;;
2022/10/05 05:34:07;;;;;;;0.4;0.4;;;;;;;14.6;100.0;101320;;;;
2022/10/05 05:35:10;;;;;;;0.5;0.5;;;;;;;14.7;100.0;101320;;;;
2022/10/05 05:36:10;;;;;;;0.5;0.5;;;;;;;14.7;100.0;101320;;;;
2022/10/05 05:37:07;;;;;;;0.5;0.5;;;;;;;14.8;100.0;101310;;;;
2022/10/05 05:38:10;;;;;;;0.5;0.5;;;;;;;14.8;100.0;101310;;;;
2022/10/05 05:39:10;;;;;;;0.5;0.5;;;;;;;14.8;100.0;101320;;;;
2022/10/05 05:40:10;;;;;;;0.5;0.5;;;;;;;14.8;100.0;101320;;;;
2022/10/05 05:41:00;;;;;;;0.5;0.5;;;;;;;14.8;100.0;101320;;;;
2022/10/05 05:42:10;;;;;;;0.5;0.5;;;;;;;14.7;100.0;101310;;;;
2022/10/05 05:43:10;;;;;;;0.5;0.5;;;;;;;14.7;100.0;101310;;;;
2022/10/05 05:44:10;;;;;;;0.5;0.5;;;;;;;14.7;100.0;101310;;;;
2022/10/05 05:45:05;;;;;;;0.5;0.5;;;;;;;14.7;100.0;101310;;;;
2022/10/05 05:46:05;;;;;;;0.5;0.5;;;;;;;14.7;100.0;101310;;;;
2022/10/05 05:47:10;;;;;;;0.5;0.5;;;;;;;14.8;100.0;101310;;;;
2022/10/05 05:48:01;;;;;;;0.5;0.5;;;;;;;14.8;100.0;101310;;;;
2022/10/05 05:49:02;;;;;;;0.5;0.5;;;;;;;14.8;100.0;101310;;;;
2022/10/05 05:50:07;;;;;;;0.5;0.5;;;;;;;14.8;100.0;101310;;;;
2022/10/05 05:51:08;;;;;;;0.5;0.5;;;;;;;14.8;100.0;101310;;;;
2022/10/05 05:52:03;;;;;;;0.5;0.5;;;;;;;14.8;100.0;101310;;;;
2022/10/05 05:53:05;;;;;;;0.5;0.5;;;;;;;14.9;100.0;101310;;;;
2022/10/05 05:54:10;;;;;;;0.5;0.5;;;;;;;14.9;100.0;101310;;;;
2022/10/05 05:55:04;;;;;;;0.5;0.5;;;;;;;14.9;100.0;101310;;;;
2022/10/05 05:56:05;;;;;;;0.5;0.5;;;;;;;14.9;100.0;101310;;;;
2022/10/05 05:57:09;;;;;;;0.5;0.5;;;;;;;14.8;100.0;101310;;;;
2022/10/05 05:58:09;;;;;;;0.5;0.5;;;;;;;14.8;100.0;101310;;;;
2022/10/05 05:59:05;;;;;;;0.5;0.5;;;;;;;14.8;100.0;101310;;;;
2022/10/05 06:00:10;;;;;;;0.5;0.5;;;;;;;14.8;100.0;101310;;;;
2022/10/05 06:01:20;;;;;;;0.5;0.5;;;;;;;14.9;100.0;101310;;;;
2022/10/05 06:02:06;;;;;;;0.5;0.5;;;;;;;14.9;100.0;101310;;;;
2022/10/05 06:03:07;;;;;;;0.5;0.5;;;;;;;14.8;100.0;101310;;;;
2022/10/05 06:04:03;;;;;;;0.5;0.5;;;;;;;14.8;100.0;101310;;;;
2022/10/05 06:05:06;;;;;;;0.5;0.5;;;;;;;14.8;100.0;101300;;;;
2022/10/05 06:06:03;;;;;;;0.5;0.5;;;;;;;14.8;100.0;101300;;;;
2022/10/05 06:07:01;;;;;;;0.5;0.5;;;;;;;14.8;100.0;101300;;;;
2022/10/05 06:08:04;;;;;;;0.5;0.5;;;;;;;14.9;100.0;101310;;;;
2022/10/05 06:09:03;;;;;;;0.5;0.5;;;;;;;14.8;100.0;101310;;;;
2022/10/05 06:10:05;;;;;;;0.5;0.5;;;;;;;14.8;100.0;101310;;;;
2022/10/05 06:11:10;;;;;;;0.5;0.5;;;;;;;14.7;100.0;101310;;;;
2022/10/05 06:12:04;;;;;;;0.5;0.5;;;;;;;14.7;100.0;101310;;;;
2022/10/05 06:13:04;;;;;;;0.5;0.5;;;;;;;14.8;100.0;101310;;;;
2022/10/05 06:14:04;;;;;;;0.5;0.5;;;;;;;14.8;100.0;101310;;;;
2022/10/05 06:15:04;;;;;;;1.6;1.0;;;;;;;14.7;100.0;101310;;;;
2022/10/05 06:16:09;;;;;;;1.6;1.0;;;;;;;14.7;100.0;101310;;;;
2022/10/05 06:17:03;;;;;;;1.6;1.0;;;;;;;14.8;100.0;101310;;;;
2022/10/05 06:18:03;;;;;;;1.6;1.0;;;;;;;14.8;100.0;101310;;;;
2022/10/05 06:19:04;;;;;;;1.6;1.0;;;;;;;14.7;100.0;101310;;;;
2022/10/05 06:20:05;;;;;;;1.6;1.0;;;;;;;14.7;100.0;101310;;;;
2022/10/05 06:21:05;;;;;;;1.6;1.0;;;;;;;14.7;100.0;101310;;;;
2022/10/05 06:22:03;;;;;;;1.6;1.0;;;;;;;14.7;100.0;101310;;;;